CEN3 weather

Three Hills Airport
Three Hills, Alberta, Canada

Public forecast

Using degrees Celsius for public forecast. Weather courtesy of forecast.io.

Closest aviation weather report (METAR) to Three Hills Airport

Closest report is Red Deer Regional Airport, 38.6 nm (71.5 km) NW. Retrieved 2020/04/09 01:00 UTC (21 minutes ago):

CYQF 090100Z 09010KT 15SM SCT100 BKN250 01/M10 A3022 RMK AC3CI3 SLP285

Closest aviation forecast (TAF) to Three Hills Airport

Closest forecast is Red Deer Regional Airport, 38.6 nm (71.5 km) NW. Retrieved 2020-04-09 00:42 UTC (39 minutes ago):

TAF CYQF 082339Z 0900/0912 VRB03KT P6SM SCT080 SCT250 BECMG 0906/0908 18008KT FM091100 18012KT P6SM BKN080 BKN200 RMK NXT FCST BY 090600Z